Hlavní strana
METAR-TAF:

METAR-TAF

Letiště :

Kristiansand, Norsko

zeměpisná šířka: 58-12N, zeměpisná délka: 008-05E, výška: 1 m

Aktuální stav počasí

Zpráva byla vytvořena před 28 minutami, v 02:20 UTC
Západojihozápadní vítr 7 kt
Teplota 3°C
Vlhkost vzduchu 87%
Tlak 1023 hPa
Viditelnost 10 km a více

METAR: ENCN 240220Z AUTO 25007KT 9999 NCD 03/01 Q1023

Čas: 03:48 (02:48 UTC)

Předpověď počasí

Zpráva byla vytvořena před 48 minutami, v 02:00 UTC
Předpověď platná od 24 v 03 UTC do 24 v 12 UTC
Západní vítr 12 kt
Viditelnost 10 km a více
Skoro jasno ve výšce 2000 ft
Polojasno ve výšce 4000 ft
Dočasný
od 24 v 09 UTC do 24 v 12 UTC
Západojihozápadní vítr 15 kt s nárazy do 25 kt

TAF: ENCN 240200Z 2403/2412 26012KT 9999 FEW020 SCT040 TEMPO 2409/2412 25015G25KT

Stav a předpovědi počasí z více než 4 000 letišť (zprávy METAR a TAF).

Červené a žluté tečky na mapě představují dostupné meteorologické stanice.

Když kurzor umístíte na tečku, zobrazí se název stanice.

Pak kliknutím zobrazíte stav a předpověď počasí.

Chcete-li změnit mapu, kliknutím na zelené tlačítko se znaménkem +mapu přiblížíte, kliknutím na zelené tlačítko se znaménkem – mapu oddálíte a kliknutím na zelené šipky přejdete na sousední mapy.


METAR-TAF: